sensor_id;sensor_type;location;lat;lon;timestamp;P1;durP1;ratioP1;P2;durP2;ratioP2
75362;SDS011;64122;51.988;5.892;2023-05-08T00:01:09;17.17;;;12.98;;
75362;SDS011;64122;51.988;5.892;2023-05-08T00:03:40;14.70;;;11.70;;
75362;SDS011;64122;51.988;5.892;2023-05-08T00:06:10;16.52;;;11.75;;
75362;SDS011;64122;51.988;5.892;2023-05-08T00:08:39;16.67;;;11.75;;
75362;SDS011;64122;51.988;5.892;2023-05-08T00:11:09;17.20;;;12.18;;
75362;SDS011;64122;51.988;5.892;2023-05-08T00:13:38;15.73;;;11.90;;
75362;SDS011;64122;51.988;5.892;2023-05-08T00:16:10;16.60;;;12.07;;
75362;SDS011;64122;51.988;5.892;2023-05-08T00:18:39;15.15;;;10.90;;
75362;SDS011;64122;51.988;5.892;2023-05-08T00:21:09;17.08;;;12.32;;
75362;SDS011;64122;51.988;5.892;2023-05-08T00:23:38;15.93;;;12.18;;
75362;SDS011;64122;51.988;5.892;2023-05-08T00:26:07;16.35;;;12.15;;
75362;SDS011;64122;51.988;5.892;2023-05-08T00:28:36;15.32;;;12.20;;
75362;SDS011;64122;51.988;5.892;2023-05-08T00:31:06;15.13;;;11.27;;
75362;SDS011;64122;51.988;5.892;2023-05-08T00:33:39;16.35;;;12.27;;
75362;SDS011;64122;51.988;5.892;2023-05-08T00:36:09;19.75;;;13.93;;
75362;SDS011;64122;51.988;5.892;2023-05-08T00:38:40;16.95;;;12.63;;
75362;SDS011;64122;51.988;5.892;2023-05-08T00:41:09;16.98;;;11.65;;
75362;SDS011;64122;51.988;5.892;2023-05-08T00:43:39;17.52;;;13.50;;
75362;SDS011;64122;51.988;5.892;2023-05-08T00:46:08;17.15;;;12.10;;
75362;SDS011;64122;51.988;5.892;2023-05-08T00:48:40;20.75;;;14.82;;
75362;SDS011;64122;51.988;5.892;2023-05-08T00:51:10;17.10;;;12.27;;
75362;SDS011;64122;51.988;5.892;2023-05-08T00:53:41;18.55;;;12.70;;
75362;SDS011;64122;51.988;5.892;2023-05-08T00:56:13;17.58;;;12.90;;
75362;SDS011;64122;51.988;5.892;2023-05-08T00:58:43;19.77;;;12.68;;
75362;SDS011;64122;51.988;5.892;2023-05-08T01:01:13;18.55;;;12.80;;
75362;SDS011;64122;51.988;5.892;2023-05-08T01:03:45;17.40;;;12.23;;
75362;SDS011;64122;51.988;5.892;2023-05-08T01:06:14;17.52;;;12.65;;
75362;SDS011;64122;51.988;5.892;2023-05-08T01:08:44;16.90;;;12.07;;
75362;SDS011;64122;51.988;5.892;2023-05-08T01:11:15;16.77;;;12.07;;
75362;SDS011;64122;51.988;5.892;2023-05-08T01:13:51;16.88;;;12.02;;
75362;SDS011;64122;51.988;5.892;2023-05-08T01:16:34;18.15;;;12.90;;
75362;SDS011;64122;51.988;5.892;2023-05-08T01:19:17;17.88;;;12.02;;
75362;SDS011;64122;51.988;5.892;2023-05-08T01:22:14;18.38;;;12.23;;
75362;SDS011;64122;51.988;5.892;2023-05-08T01:24:59;19.05;;;12.80;;
75362;SDS011;64122;51.988;5.892;2023-05-08T01:27:54;18.33;;;13.23;;
75362;SDS011;64122;51.988;5.892;2023-05-08T01:30:45;18.25;;;12.82;;
75362;SDS011;64122;51.988;5.892;2023-05-08T01:33:29;17.33;;;13.25;;
75362;SDS011;64122;51.988;5.892;2023-05-08T01:36:09;18.92;;;13.05;;
75362;SDS011;64122;51.988;5.892;2023-05-08T01:38:47;18.60;;;12.95;;
75362;SDS011;64122;51.988;5.892;2023-05-08T01:41:24;20.65;;;13.70;;
75362;SDS011;64122;51.988;5.892;2023-05-08T01:43:59;17.48;;;12.07;;
75362;SDS011;64122;51.988;5.892;2023-05-08T01:46:35;18.85;;;13.18;;
75362;SDS011;64122;51.988;5.892;2023-05-08T01:49:09;16.83;;;12.63;;
75362;SDS011;64122;51.988;5.892;2023-05-08T01:51:42;22.73;;;14.93;;
75362;SDS011;64122;51.988;5.892;2023-05-08T01:54:14;18.30;;;12.57;;
75362;SDS011;64122;51.988;5.892;2023-05-08T01:56:47;17.58;;;13.88;;
75362;SDS011;64122;51.988;5.892;2023-05-08T01:59:18;19.17;;;14.25;;
75362;SDS011;64122;51.988;5.892;2023-05-08T02:01:51;19.33;;;12.88;;
75362;SDS011;64122;51.988;5.892;2023-05-08T02:04:25;19.00;;;14.00;;
75362;SDS011;64122;51.988;5.892;2023-05-08T02:06:56;20.50;;;13.55;;
75362;SDS011;64122;51.988;5.892;2023-05-08T02:09:26;18.38;;;13.13;;
75362;SDS011;64122;51.988;5.892;2023-05-08T02:11:57;21.17;;;13.25;;
75362;SDS011;64122;51.988;5.892;2023-05-08T02:14:28;18.92;;;13.57;;
75362;SDS011;64122;51.988;5.892;2023-05-08T02:16:59;20.83;;;13.77;;
75362;SDS011;64122;51.988;5.892;2023-05-08T02:19:33;17.85;;;13.85;;
75362;SDS011;64122;51.988;5.892;2023-05-08T02:22:05;22.42;;;13.25;;
75362;SDS011;64122;51.988;5.892;2023-05-08T02:24:36;19.63;;;13.27;;
75362;SDS011;64122;51.988;5.892;2023-05-08T02:27:06;18.48;;;13.25;;
75362;SDS011;64122;51.988;5.892;2023-05-08T02:29:38;19.27;;;14.02;;
75362;SDS011;64122;51.988;5.892;2023-05-08T02:32:08;20.67;;;13.82;;
75362;SDS011;64122;51.988;5.892;2023-05-08T02:34:41;16.92;;;12.70;;
75362;SDS011;64122;51.988;5.892;2023-05-08T02:37:11;19.80;;;13.05;;
75362;SDS011;64122;51.988;5.892;2023-05-08T02:39:42;18.77;;;13.60;;
75362;SDS011;64122;51.988;5.892;2023-05-08T02:42:13;20.02;;;13.77;;
75362;SDS011;64122;51.988;5.892;2023-05-08T02:44:43;18.20;;;13.43;;
75362;SDS011;64122;51.988;5.892;2023-05-08T02:47:14;21.35;;;14.13;;
75362;SDS011;64122;51.988;5.892;2023-05-08T02:49:53;21.30;;;14.88;;
75362;SDS011;64122;51.988;5.892;2023-05-08T02:52:29;18.45;;;13.77;;
75362;SDS011;64122;51.988;5.892;2023-05-08T02:55:03;22.60;;;14.93;;
75362;SDS011;64122;51.988;5.892;2023-05-08T02:57:42;20.95;;;14.77;;
75362;SDS011;64122;51.988;5.892;2023-05-08T03:00:16;23.50;;;15.32;;
75362;SDS011;64122;51.988;5.892;2023-05-08T03:02:48;22.77;;;13.88;;
75362;SDS011;64122;51.988;5.892;2023-05-08T03:05:27;18.58;;;13.88;;
75362;SDS011;64122;51.988;5.892;2023-05-08T03:07:59;21.13;;;14.18;;
75362;SDS011;64122;51.988;5.892;2023-05-08T03:10:33;19.17;;;14.13;;
75362;SDS011;64122;51.988;5.892;2023-05-08T03:13:04;23.95;;;13.98;;
75362;SDS011;64122;51.988;5.892;2023-05-08T03:15:36;20.00;;;13.70;;
75362;SDS011;64122;51.988;5.892;2023-05-08T03:18:12;20.70;;;14.35;;
75362;SDS011;64122;51.988;5.892;2023-05-08T03:20:47;20.95;;;15.02;;
75362;SDS011;64122;51.988;5.892;2023-05-08T03:23:20;21.73;;;15.27;;
75362;SDS011;64122;51.988;5.892;2023-05-08T03:25:53;19.63;;;14.70;;
75362;SDS011;64122;51.988;5.892;2023-05-08T03:28:26;21.35;;;14.57;;
75362;SDS011;64122;51.988;5.892;2023-05-08T03:30:57;21.95;;;14.80;;
75362;SDS011;64122;51.988;5.892;2023-05-08T03:33:27;20.73;;;15.25;;
75362;SDS011;64122;51.988;5.892;2023-05-08T03:36:01;21.38;;;15.80;;
75362;SDS011;64122;51.988;5.892;2023-05-08T03:38:30;21.88;;;14.48;;
75362;SDS011;64122;51.988;5.892;2023-05-08T03:41:00;20.48;;;15.40;;
75362;SDS011;64122;51.988;5.892;2023-05-08T03:43:29;20.05;;;14.57;;
75362;SDS011;64122;51.988;5.892;2023-05-08T03:45:59;20.75;;;14.88;;
75362;SDS011;64122;51.988;5.892;2023-05-08T03:48:29;21.40;;;15.45;;
75362;SDS011;64122;51.988;5.892;2023-05-08T03:51:04;21.75;;;13.88;;
75362;SDS011;64122;51.988;5.892;2023-05-08T03:53:35;20.90;;;14.98;;
75362;SDS011;64122;51.988;5.892;2023-05-08T03:56:05;20.38;;;14.38;;
75362;SDS011;64122;51.988;5.892;2023-05-08T03:58:36;21.50;;;15.27;;
75362;SDS011;64122;51.988;5.892;2023-05-08T04:01:11;19.65;;;14.70;;
75362;SDS011;64122;51.988;5.892;2023-05-08T04:04:02;19.67;;;14.20;;
75362;SDS011;64122;51.988;5.892;2023-05-08T04:06:39;19.98;;;14.43;;
75362;SDS011;64122;51.988;5.892;2023-05-08T04:09:14;21.23;;;15.35;;
75362;SDS011;64122;51.988;5.892;2023-05-08T04:11:51;22.10;;;15.05;;
75362;SDS011;64122;51.988;5.892;2023-05-08T04:14:29;18.25;;;13.88;;
75362;SDS011;64122;51.988;5.892;2023-05-08T04:17:03;20.95;;;14.82;;
75362;SDS011;64122;51.988;5.892;2023-05-08T04:19:37;20.25;;;15.02;;
75362;SDS011;64122;51.988;5.892;2023-05-08T04:22:15;21.38;;;14.80;;
75362;SDS011;64122;51.988;5.892;2023-05-08T04:24:48;19.45;;;14.57;;
75362;SDS011;64122;51.988;5.892;2023-05-08T04:27:19;19.75;;;13.65;;
75362;SDS011;64122;51.988;5.892;2023-05-08T04:29:48;21.75;;;15.15;;
75362;SDS011;64122;51.988;5.892;2023-05-08T04:32:18;18.85;;;13.93;;
75362;SDS011;64122;51.988;5.892;2023-05-08T04:34:48;21.35;;;15.15;;
75362;SDS011;64122;51.988;5.892;2023-05-08T04:37:27;20.90;;;14.63;;
75362;SDS011;64122;51.988;5.892;2023-05-08T04:40:00;22.63;;;14.65;;
75362;SDS011;64122;51.988;5.892;2023-05-08T04:42:31;18.50;;;14.13;;
75362;SDS011;64122;51.988;5.892;2023-05-08T04:45:02;18.75;;;14.85;;
75362;SDS011;64122;51.988;5.892;2023-05-08T04:47:32;21.55;;;15.30;;
75362;SDS011;64122;51.988;5.892;2023-05-08T04:50:02;20.90;;;14.85;;
75362;SDS011;64122;51.988;5.892;2023-05-08T04:52:36;19.90;;;14.35;;
75362;SDS011;64122;51.988;5.892;2023-05-08T04:55:06;20.17;;;14.82;;
75362;SDS011;64122;51.988;5.892;2023-05-08T04:57:38;19.38;;;14.23;;
75362;SDS011;64122;51.988;5.892;2023-05-08T05:00:07;20.60;;;14.75;;
75362;SDS011;64122;51.988;5.892;2023-05-08T05:02:40;19.85;;;15.13;;
75362;SDS011;64122;51.988;5.892;2023-05-08T05:05:09;20.60;;;14.98;;
75362;SDS011;64122;51.988;5.892;2023-05-08T05:07:41;19.80;;;15.25;;
75362;SDS011;64122;51.988;5.892;2023-05-08T05:10:11;19.20;;;15.07;;
75362;SDS011;64122;51.988;5.892;2023-05-08T05:12:40;20.75;;;14.55;;
75362;SDS011;64122;51.988;5.892;2023-05-08T05:15:10;21.42;;;14.70;;
75362;SDS011;64122;51.988;5.892;2023-05-08T05:17:40;22.77;;;15.43;;
75362;SDS011;64122;51.988;5.892;2023-05-08T05:20:10;19.65;;;14.82;;
75362;SDS011;64122;51.988;5.892;2023-05-08T05:22:42;20.13;;;14.90;;
75362;SDS011;64122;51.988;5.892;2023-05-08T05:25:12;18.75;;;14.63;;
75362;SDS011;64122;51.988;5.892;2023-05-08T05:27:42;22.77;;;15.73;;
75362;SDS011;64122;51.988;5.892;2023-05-08T05:30:11;26.15;;;20.67;;
75362;SDS011;64122;51.988;5.892;2023-05-08T05:32:41;21.02;;;16.52;;
75362;SDS011;64122;51.988;5.892;2023-05-08T05:35:10;27.65;;;20.98;;
75362;SDS011;64122;51.988;5.892;2023-05-08T05:37:40;23.70;;;17.50;;
75362;SDS011;64122;51.988;5.892;2023-05-08T05:40:12;22.65;;;16.10;;
75362;SDS011;64122;51.988;5.892;2023-05-08T05:42:42;18.40;;;14.18;;
75362;SDS011;64122;51.988;5.892;2023-05-08T05:45:17;19.30;;;15.07;;
75362;SDS011;64122;51.988;5.892;2023-05-08T05:47:47;19.70;;;14.85;;
75362;SDS011;64122;51.988;5.892;2023-05-08T05:50:21;21.77;;;15.15;;
75362;SDS011;64122;51.988;5.892;2023-05-08T05:52:54;22.17;;;15.98;;
75362;SDS011;64122;51.988;5.892;2023-05-08T05:55:23;21.15;;;15.35;;
75362;SDS011;64122;51.988;5.892;2023-05-08T05:57:53;22.83;;;16.98;;
75362;SDS011;64122;51.988;5.892;2023-05-08T06:00:22;24.40;;;16.95;;
75362;SDS011;64122;51.988;5.892;2023-05-08T06:02:54;21.52;;;15.75;;
75362;SDS011;64122;51.988;5.892;2023-05-08T06:05:24;20.95;;;15.63;;
75362;SDS011;64122;51.988;5.892;2023-05-08T06:07:56;19.00;;;14.93;;
75362;SDS011;64122;51.988;5.892;2023-05-08T06:10:25;22.52;;;14.80;;
75362;SDS011;64122;51.988;5.892;2023-05-08T06:12:54;24.85;;;17.63;;
75362;SDS011;64122;51.988;5.892;2023-05-08T06:15:25;28.25;;;20.75;;
75362;SDS011;64122;51.988;5.892;2023-05-08T06:17:54;22.30;;;16.65;;
75362;SDS011;64122;51.988;5.892;2023-05-08T06:20:23;33.78;;;17.33;;
75362;SDS011;64122;51.988;5.892;2023-05-08T06:22:52;21.30;;;16.80;;
75362;SDS011;64122;51.988;5.892;2023-05-08T06:25:24;21.80;;;16.35;;
75362;SDS011;64122;51.988;5.892;2023-05-08T06:27:54;24.52;;;17.52;;
75362;SDS011;64122;51.988;5.892;2023-05-08T06:30:23;25.23;;;17.60;;
75362;SDS011;64122;51.988;5.892;2023-05-08T06:32:52;27.92;;;16.75;;
75362;SDS011;64122;51.988;5.892;2023-05-08T06:35:22;25.38;;;18.23;;
75362;SDS011;64122;51.988;5.892;2023-05-08T06:37:51;31.02;;;20.05;;
75362;SDS011;64122;51.988;5.892;2023-05-08T06:40:23;31.50;;;20.45;;
75362;SDS011;64122;51.988;5.892;2023-05-08T06:42:52;26.98;;;19.00;;
75362;SDS011;64122;51.988;5.892;2023-05-08T06:45:21;30.15;;;19.90;;
75362;SDS011;64122;51.988;5.892;2023-05-08T06:47:51;33.58;;;23.05;;
75362;SDS011;64122;51.988;5.892;2023-05-08T06:50:20;32.65;;;20.80;;
75362;SDS011;64122;51.988;5.892;2023-05-08T06:52:50;33.63;;;21.45;;
75362;SDS011;64122;51.988;5.892;2023-05-08T06:55:20;34.70;;;21.75;;
75362;SDS011;64122;51.988;5.892;2023-05-08T06:57:51;32.53;;;21.95;;
75362;SDS011;64122;51.988;5.892;2023-05-08T07:00:21;34.28;;;21.08;;
75362;SDS011;64122;51.988;5.892;2023-05-08T07:02:50;30.60;;;20.83;;
75362;SDS011;64122;51.988;5.892;2023-05-08T07:05:20;28.70;;;19.63;;
75362;SDS011;64122;51.988;5.892;2023-05-08T07:07:49;28.90;;;20.70;;
75362;SDS011;64122;51.988;5.892;2023-05-08T07:10:19;29.77;;;20.67;;
75362;SDS011;64122;51.988;5.892;2023-05-08T07:12:51;31.45;;;20.63;;
75362;SDS011;64122;51.988;5.892;2023-05-08T07:15:20;30.83;;;22.13;;
75362;SDS011;64122;51.988;5.892;2023-05-08T07:17:49;28.60;;;20.38;;
75362;SDS011;64122;51.988;5.892;2023-05-08T07:20:18;32.42;;;24.02;;
75362;SDS011;64122;51.988;5.892;2023-05-08T07:22:49;30.80;;;21.38;;
75362;SDS011;64122;51.988;5.892;2023-05-08T07:25:18;31.83;;;21.10;;
75362;SDS011;64122;51.988;5.892;2023-05-08T07:27:47;33.60;;;23.63;;
75362;SDS011;64122;51.988;5.892;2023-05-08T07:30:19;30.98;;;22.17;;
75362;SDS011;64122;51.988;5.892;2023-05-08T07:35:17;31.88;;;22.73;;
75362;SDS011;64122;51.988;5.892;2023-05-08T07:37:47;29.02;;;22.33;;
75362;SDS011;64122;51.988;5.892;2023-05-08T07:40:16;36.33;;;23.58;;
75362;SDS011;64122;51.988;5.892;2023-05-08T07:42:46;31.02;;;22.67;;
75362;SDS011;64122;51.988;5.892;2023-05-08T07:45:15;30.15;;;22.48;;
75362;SDS011;64122;51.988;5.892;2023-05-08T07:47:50;30.00;;;22.30;;
75362;SDS011;64122;51.988;5.892;2023-05-08T07:50:21;35.80;;;24.00;;
75362;SDS011;64122;51.988;5.892;2023-05-08T07:52:51;30.25;;;22.02;;
75362;SDS011;64122;51.988;5.892;2023-05-08T07:55:20;34.03;;;23.50;;
75362;SDS011;64122;51.988;5.892;2023-05-08T07:57:49;33.28;;;22.02;;
75362;SDS011;64122;51.988;5.892;2023-05-08T08:00:19;35.50;;;23.17;;
75362;SDS011;64122;51.988;5.892;2023-05-08T08:02:51;35.63;;;24.35;;
75362;SDS011;64122;51.988;5.892;2023-05-08T08:05:23;33.78;;;23.60;;
75362;SDS011;64122;51.988;5.892;2023-05-08T08:07:53;31.83;;;23.02;;
75362;SDS011;64122;51.988;5.892;2023-05-08T08:10:22;32.72;;;22.38;;
75362;SDS011;64122;51.988;5.892;2023-05-08T08:12:51;40.92;;;24.27;;
75362;SDS011;64122;51.988;5.892;2023-05-08T08:15:21;35.92;;;24.40;;
75362;SDS011;64122;51.988;5.892;2023-05-08T08:17:53;38.72;;;25.20;;
75362;SDS011;64122;51.988;5.892;2023-05-08T08:22:51;39.83;;;25.10;;
75362;SDS011;64122;51.988;5.892;2023-05-08T08:25:20;39.00;;;25.38;;
75362;SDS011;64122;51.988;5.892;2023-05-08T08:27:50;41.67;;;25.73;;
75362;SDS011;64122;51.988;5.892;2023-05-08T08:30:19;40.67;;;25.85;;
75362;SDS011;64122;51.988;5.892;2023-05-08T08:32:49;41.17;;;26.42;;
75362;SDS011;64122;51.988;5.892;2023-05-08T08:35:20;42.47;;;27.17;;
75362;SDS011;64122;51.988;5.892;2023-05-08T08:37:54;42.70;;;24.85;;
75362;SDS011;64122;51.988;5.892;2023-05-08T08:40:23;43.33;;;26.58;;
75362;SDS011;64122;51.988;5.892;2023-05-08T08:42:53;41.30;;;25.98;;
75362;SDS011;64122;51.988;5.892;2023-05-08T08:45:22;44.67;;;26.58;;
75362;SDS011;64122;51.988;5.892;2023-05-08T08:47:51;43.03;;;27.63;;
75362;SDS011;64122;51.988;5.892;2023-05-08T08:50:24;40.70;;;25.23;;
75362;SDS011;64122;51.988;5.892;2023-05-08T08:52:55;41.28;;;25.85;;
75362;SDS011;64122;51.988;5.892;2023-05-08T08:55:32;46.58;;;27.77;;
75362;SDS011;64122;51.988;5.892;2023-05-08T08:58:06;40.53;;;26.77;;
75362;SDS011;64122;51.988;5.892;2023-05-08T09:00:42;40.33;;;25.67;;
75362;SDS011;64122;51.988;5.892;2023-05-08T09:03:12;36.20;;;24.70;;
75362;SDS011;64122;51.988;5.892;2023-05-08T09:05:44;39.92;;;25.92;;
75362;SDS011;64122;51.988;5.892;2023-05-08T09:08:16;38.50;;;26.35;;
75362;SDS011;64122;51.988;5.892;2023-05-08T09:10:46;38.40;;;25.55;;
75362;SDS011;64122;51.988;5.892;2023-05-08T09:13:17;35.88;;;24.35;;
75362;SDS011;64122;51.988;5.892;2023-05-08T09:15:46;38.65;;;25.17;;
75362;SDS011;64122;51.988;5.892;2023-05-08T09:18:16;35.10;;;24.85;;
75362;SDS011;64122;51.988;5.892;2023-05-08T09:20:48;35.17;;;24.65;;
75362;SDS011;64122;51.988;5.892;2023-05-08T09:23:18;37.50;;;25.30;;
75362;SDS011;64122;51.988;5.892;2023-05-08T09:25:48;32.45;;;22.58;;
75362;SDS011;64122;51.988;5.892;2023-05-08T09:28:19;35.83;;;25.40;;
75362;SDS011;64122;51.988;5.892;2023-05-08T09:30:54;33.53;;;25.02;;
75362;SDS011;64122;51.988;5.892;2023-05-08T09:33:26;33.72;;;24.55;;
75362;SDS011;64122;51.988;5.892;2023-05-08T09:35:59;35.15;;;24.50;;
75362;SDS011;64122;51.988;5.892;2023-05-08T09:38:32;33.95;;;25.05;;
75362;SDS011;64122;51.988;5.892;2023-05-08T09:41:06;32.72;;;23.65;;
75362;SDS011;64122;51.988;5.892;2023-05-08T09:43:37;30.95;;;23.38;;
75362;SDS011;64122;51.988;5.892;2023-05-08T09:46:19;31.65;;;23.38;;
75362;SDS011;64122;51.988;5.892;2023-05-08T09:48:50;31.00;;;24.63;;
75362;SDS011;64122;51.988;5.892;2023-05-08T09:51:23;33.30;;;24.52;;
75362;SDS011;64122;51.988;5.892;2023-05-08T09:53:53;29.38;;;22.77;;
75362;SDS011;64122;51.988;5.892;2023-05-08T09:56:30;33.80;;;24.83;;
75362;SDS011;64122;51.988;5.892;2023-05-08T09:59:04;30.13;;;22.73;;
75362;SDS011;64122;51.988;5.892;2023-05-08T10:01:49;37.00;;;25.38;;
75362;SDS011;64122;51.988;5.892;2023-05-08T10:04:30;32.13;;;23.17;;
75362;SDS011;64122;51.988;5.892;2023-05-08T10:07:02;32.08;;;23.90;;
75362;SDS011;64122;51.988;5.892;2023-05-08T10:09:32;31.50;;;23.02;;
75362;SDS011;64122;51.988;5.892;2023-05-08T10:12:01;32.17;;;23.92;;
75362;SDS011;64122;51.988;5.892;2023-05-08T10:14:31;32.25;;;24.00;;
75362;SDS011;64122;51.988;5.892;2023-05-08T10:17:00;32.58;;;24.50;;
75362;SDS011;64122;51.988;5.892;2023-05-08T10:19:35;29.88;;;23.33;;
75362;SDS011;64122;51.988;5.892;2023-05-08T10:22:11;31.98;;;23.42;;
75362;SDS011;64122;51.988;5.892;2023-05-08T10:24:43;28.48;;;22.65;;
75362;SDS011;64122;51.988;5.892;2023-05-08T10:27:16;25.88;;;20.75;;
75362;SDS011;64122;51.988;5.892;2023-05-08T10:29:53;29.65;;;22.00;;
75362;SDS011;64122;51.988;5.892;2023-05-08T10:32:23;30.70;;;23.77;;
75362;SDS011;64122;51.988;5.892;2023-05-08T10:34:55;30.63;;;24.10;;
75362;SDS011;64122;51.988;5.892;2023-05-08T10:37:29;32.88;;;24.63;;
75362;SDS011;64122;51.988;5.892;2023-05-08T10:40:01;32.33;;;23.83;;
75362;SDS011;64122;51.988;5.892;2023-05-08T10:42:31;30.42;;;23.65;;
75362;SDS011;64122;51.988;5.892;2023-05-08T10:45:03;27.40;;;24.20;;
75362;SDS011;64122;51.988;5.892;2023-05-08T10:47:39;30.40;;;25.75;;
75362;SDS011;64122;51.988;5.892;2023-05-08T10:50:20;30.38;;;25.98;;
75362;SDS011;64122;51.988;5.892;2023-05-08T10:53:00;32.45;;;25.90;;
75362;SDS011;64122;51.988;5.892;2023-05-08T10:55:35;33.50;;;26.05;;
75362;SDS011;64122;51.988;5.892;2023-05-08T10:58:10;33.53;;;27.48;;
75362;SDS011;64122;51.988;5.892;2023-05-08T11:03:47;32.25;;;26.60;;
75362;SDS011;64122;51.988;5.892;2023-05-08T11:09:20;39.05;;;29.75;;
75362;SDS011;64122;51.988;5.892;2023-05-08T11:11:51;43.25;;;31.80;;
75362;SDS011;64122;51.988;5.892;2023-05-08T11:14:35;38.58;;;30.17;;
75362;SDS011;64122;51.988;5.892;2023-05-08T11:17:09;36.08;;;30.10;;
75362;SDS011;64122;51.988;5.892;2023-05-08T11:19:38;37.45;;;30.30;;
75362;SDS011;64122;51.988;5.892;2023-05-08T11:22:24;35.13;;;28.70;;
75362;SDS011;64122;51.988;5.892;2023-05-08T11:24:58;36.92;;;29.75;;
75362;SDS011;64122;51.988;5.892;2023-05-08T11:27:35;36.97;;;29.50;;
75362;SDS011;64122;51.988;5.892;2023-05-08T11:30:21;37.20;;;28.95;;
75362;SDS011;64122;51.988;5.892;2023-05-08T11:33:11;38.78;;;32.45;;
75362;SDS011;64122;51.988;5.892;2023-05-08T11:35:48;38.17;;;30.98;;
75362;SDS011;64122;51.988;5.892;2023-05-08T11:38:20;39.38;;;32.08;;
75362;SDS011;64122;51.988;5.892;2023-05-08T11:43:59;34.58;;;29.55;;
75362;SDS011;64122;51.988;5.892;2023-05-08T11:46:48;38.28;;;32.00;;
75362;SDS011;64122;51.988;5.892;2023-05-08T11:49:20;39.35;;;32.08;;
75362;SDS011;64122;51.988;5.892;2023-05-08T11:51:50;38.72;;;32.05;;
75362;SDS011;64122;51.988;5.892;2023-05-08T11:54:23;40.35;;;33.47;;
75362;SDS011;64122;51.988;5.892;2023-05-08T11:56:55;41.40;;;32.58;;
75362;SDS011;64122;51.988;5.892;2023-05-08T11:59:25;42.70;;;33.72;;
75362;SDS011;64122;51.988;5.892;2023-05-08T12:01:54;45.85;;;33.42;;
75362;SDS011;64122;51.988;5.892;2023-05-08T12:04:23;41.60;;;34.45;;
75362;SDS011;64122;51.988;5.892;2023-05-08T12:06:55;38.22;;;31.85;;
75362;SDS011;64122;51.988;5.892;2023-05-08T12:09:26;38.10;;;31.63;;
75362;SDS011;64122;51.988;5.892;2023-05-08T12:11:58;42.50;;;34.00;;
75362;SDS011;64122;51.988;5.892;2023-05-08T12:14:27;35.33;;;31.00;;
75362;SDS011;64122;51.988;5.892;2023-05-08T12:16:56;37.28;;;32.40;;
75362;SDS011;64122;51.988;5.892;2023-05-08T12:19:28;41.45;;;32.92;;
75362;SDS011;64122;51.988;5.892;2023-05-08T12:21:57;40.55;;;32.78;;
75362;SDS011;64122;51.988;5.892;2023-05-08T12:24:27;39.22;;;32.60;;
75362;SDS011;64122;51.988;5.892;2023-05-08T12:27:00;38.65;;;31.35;;
75362;SDS011;64122;51.988;5.892;2023-05-08T12:29:30;36.28;;;30.80;;
75362;SDS011;64122;51.988;5.892;2023-05-08T12:32:04;38.67;;;32.40;;
75362;SDS011;64122;51.988;5.892;2023-05-08T12:34:33;40.42;;;31.85;;
75362;SDS011;64122;51.988;5.892;2023-05-08T12:37:03;35.28;;;30.20;;
75362;SDS011;64122;51.988;5.892;2023-05-08T12:39:35;39.00;;;31.58;;
75362;SDS011;64122;51.988;5.892;2023-05-08T12:42:07;39.92;;;33.90;;
75362;SDS011;64122;51.988;5.892;2023-05-08T12:44:37;37.70;;;31.92;;
75362;SDS011;64122;51.988;5.892;2023-05-08T12:47:06;38.60;;;32.15;;
75362;SDS011;64122;51.988;5.892;2023-05-08T12:49:36;35.35;;;29.85;;
75362;SDS011;64122;51.988;5.892;2023-05-08T12:52:05;36.88;;;30.65;;
75362;SDS011;64122;51.988;5.892;2023-05-08T12:54:36;36.80;;;30.55;;
75362;SDS011;64122;51.988;5.892;2023-05-08T12:57:13;36.42;;;31.50;;
75362;SDS011;64122;51.988;5.892;2023-05-08T12:59:44;37.58;;;30.80;;
75362;SDS011;64122;51.988;5.892;2023-05-08T13:02:14;38.22;;;32.28;;
75362;SDS011;64122;51.988;5.892;2023-05-08T13:07:15;38.28;;;30.27;;
75362;SDS011;64122;51.988;5.892;2023-05-08T13:09:56;34.58;;;28.15;;
75362;SDS011;64122;51.988;5.892;2023-05-08T13:12:31;31.05;;;27.70;;
75362;SDS011;64122;51.988;5.892;2023-05-08T13:15:02;32.65;;;27.05;;
75362;SDS011;64122;51.988;5.892;2023-05-08T13:17:32;34.97;;;29.10;;
75362;SDS011;64122;51.988;5.892;2023-05-08T13:20:01;33.13;;;28.75;;
75362;SDS011;64122;51.988;5.892;2023-05-08T13:22:31;34.92;;;28.40;;
75362;SDS011;64122;51.988;5.892;2023-05-08T13:25:00;32.97;;;28.58;;
75362;SDS011;64122;51.988;5.892;2023-05-08T13:27:32;33.05;;;27.48;;
75362;SDS011;64122;51.988;5.892;2023-05-08T13:32:31;34.70;;;28.90;;
75362;SDS011;64122;51.988;5.892;2023-05-08T13:35:04;34.35;;;29.17;;
75362;SDS011;64122;51.988;5.892;2023-05-08T13:37:34;39.05;;;30.75;;
75362;SDS011;64122;51.988;5.892;2023-05-08T13:40:04;36.08;;;29.60;;
75362;SDS011;64122;51.988;5.892;2023-05-08T13:42:37;35.25;;;28.15;;
75362;SDS011;64122;51.988;5.892;2023-05-08T13:45:07;31.42;;;27.23;;
75362;SDS011;64122;51.988;5.892;2023-05-08T13:47:39;38.55;;;30.85;;
75362;SDS011;64122;51.988;5.892;2023-05-08T13:50:09;35.88;;;30.15;;
75362;SDS011;64122;51.988;5.892;2023-05-08T13:52:43;35.58;;;30.38;;
75362;SDS011;64122;51.988;5.892;2023-05-08T13:55:12;35.05;;;30.05;;
75362;SDS011;64122;51.988;5.892;2023-05-08T13:57:44;35.22;;;29.90;;
75362;SDS011;64122;51.988;5.892;2023-05-08T14:00:14;34.92;;;30.27;;
75362;SDS011;64122;51.988;5.892;2023-05-08T14:02:44;37.15;;;32.08;;
75362;SDS011;64122;51.988;5.892;2023-05-08T14:05:14;36.80;;;30.65;;
75362;SDS011;64122;51.988;5.892;2023-05-08T14:07:43;38.33;;;29.70;;
75362;SDS011;64122;51.988;5.892;2023-05-08T14:10:13;35.08;;;29.73;;
75362;SDS011;64122;51.988;5.892;2023-05-08T14:12:45;33.63;;;29.02;;
75362;SDS011;64122;51.988;5.892;2023-05-08T14:15:14;36.28;;;29.23;;
75362;SDS011;64122;51.988;5.892;2023-05-08T14:17:43;36.38;;;30.85;;
75362;SDS011;64122;51.988;5.892;2023-05-08T14:20:13;34.60;;;28.15;;
75362;SDS011;64122;51.988;5.892;2023-05-08T14:22:42;31.92;;;28.17;;
75362;SDS011;64122;51.988;5.892;2023-05-08T14:25:11;32.35;;;27.55;;
75362;SDS011;64122;51.988;5.892;2023-05-08T14:27:40;34.50;;;28.50;;
75362;SDS011;64122;51.988;5.892;2023-05-08T14:30:13;30.40;;;26.48;;
75362;SDS011;64122;51.988;5.892;2023-05-08T14:32:42;29.80;;;25.73;;
75362;SDS011;64122;51.988;5.892;2023-05-08T14:35:11;40.53;;;32.00;;
75362;SDS011;64122;51.988;5.892;2023-05-08T14:37:41;30.15;;;26.75;;
75362;SDS011;64122;51.988;5.892;2023-05-08T14:40:10;33.22;;;25.40;;
75362;SDS011;64122;51.988;5.892;2023-05-08T14:42:40;29.77;;;24.27;;
75362;SDS011;64122;51.988;5.892;2023-05-08T14:45:09;29.73;;;25.45;;
75362;SDS011;64122;51.988;5.892;2023-05-08T14:47:41;29.88;;;23.95;;
75362;SDS011;64122;51.988;5.892;2023-05-08T14:50:11;30.38;;;24.23;;
75362;SDS011;64122;51.988;5.892;2023-05-08T14:52:40;30.58;;;25.23;;
75362;SDS011;64122;51.988;5.892;2023-05-08T14:55:09;28.17;;;23.40;;
75362;SDS011;64122;51.988;5.892;2023-05-08T14:57:45;31.55;;;25.55;;
75362;SDS011;64122;51.988;5.892;2023-05-08T15:00:17;30.05;;;24.88;;
75362;SDS011;64122;51.988;5.892;2023-05-08T15:02:47;33.30;;;26.00;;
75362;SDS011;64122;51.988;5.892;2023-05-08T15:05:17;31.80;;;26.20;;
75362;SDS011;64122;51.988;5.892;2023-05-08T15:07:46;35.45;;;26.23;;